Flight Track Log - Related Links

Times and Time Zones

All times are in EDT time to prevent confusion due to time zone crossing. See the N1944E flight status page for this flight to view local times or setup timezone preferences in your user account.

Time Position Orientation Groundspeed Altitude Reporting Facility
EDT Latitude Longitude Course Direction KTS MPH feet Rate Location/Type
Thu 08:43:35 AM 44.6389 -109.2161 304° West 129 148 10,800  Level Salt Lake Center
Thu 08:44:36 AM 44.6583 -109.2569 304° West 128 147 11,700 843 Climbing Salt Lake Center
Thu 08:45:36 AM 44.6797 -109.3003 305° West 131 151 12,500 744 Climbing Salt Lake Center
Thu 08:46:37 AM 44.7006 -109.3483 301° West 139 160 13,200 836 Climbing Salt Lake Center
Thu 08:47:38 AM 44.7250 -109.4069 300° West 148 170 14,200 843 Climbing Salt Lake Center
Thu 08:48:38 AM 44.7508 -109.4583 305° West 151 174 14,900 744 Climbing Salt Lake Center
Thu 08:49:39 AM 44.7756 -109.5092 304° West 156 180 15,700 793 Climbing Salt Lake Center
Thu 08:50:39 AM 44.7994 -109.5622 302° West 160 184 16,500 694 Climbing Salt Lake Center
Thu 08:51:40 AM 44.8247 -109.6189 302° West 167 192 17,100 639 Climbing Salt Lake Center
Thu 08:52:41 AM 44.8531 -109.6736 306° West 171 197 17,800 496 Climbing Salt Lake Center
Thu 08:53:41 AM 44.8806 -109.7322 304° West 177 204 18,100 99 Climbing Salt Lake Center
Thu 08:54:42 AM 44.9097 -109.7992 302° West 193 222 18,000  Descending Salt Lake Center
Thu 08:55:43 AM 44.9392 -109.8633 303° West 204 235 18,100  Climbing Salt Lake Center
Thu 08:56:43 AM 44.9778 -109.9372 306° West 208 239 18,000 -50 Descending Salt Lake Center
Thu 08:57:44 AM 45.0086 -109.9989 305° West 204 235 18,000  Level Salt Lake Center
Thu 08:58:44 AM 45.0394 -110.0614 305° West 204 235 18,000  Level Salt Lake Center
Thu 08:59:45 AM 45.0728 -110.1364 302° West 202 232 18,000  Level Salt Lake Center
Thu 09:00:46 AM 45.1017 -110.2011 302° West 204 235 18,000  Level Salt Lake Center
Thu 09:01:47 AM 45.1292 -110.2664 301° West 203 234 18,000  Level Salt Lake Center
Thu 09:02:47 AM 45.1583 -110.3339 302° West 202 232 18,000  Level Salt Lake Center
Thu 09:03:48 AM 45.1878 -110.4014 302° West 202 232 18,000  Level Salt Lake Center
Thu 09:04:49 AM 45.2186 -110.4675 304° West 202 232 18,000  Level Salt Lake Center
Thu 09:05:50 AM 45.2486 -110.5342 303° West 201 231 18,000  Level Salt Lake Center
Thu 09:06:51 AM 45.2844 -110.6092 304° West 206 237 18,000  Level Salt Lake Center
Thu 09:07:51 AM 45.3133 -110.6722 303° West 202 232 18,000  Level Salt Lake Center
Thu 09:08:52 AM 45.3475 -110.7478 303° West 203 234 18,000  Level Salt Lake Center
Thu 09:09:53 AM 45.3769 -110.8158 302° West 200 230 18,000  Level Salt Lake Center
Thu 09:10:54 AM 45.4089 -110.8861 303° West 200 230 18,000  Level Salt Lake Center
Thu 09:11:55 AM 45.4372 -110.9494 303° West 201 231 18,000  Level Salt Lake Center
Thu 09:12:56 AM 45.4672 -111.0119 304° West 199 229 18,000  Level Salt Lake Center
Thu 09:13:57 AM 45.4992 -111.0881 301° West 200 230 18,000  Level Salt Lake Center
Thu 09:14:58 AM 45.5264 -111.1522 301° West 199 229 18,000  Level Salt Lake Center
Thu 09:15:59 AM 45.5528 -111.2161 301° West 198 228 18,000  Level Salt Lake Center
Thu 09:17:00 AM 45.5850 -111.2914 301° West 198 228 18,000  Level Salt Lake Center
Thu 09:18:01 AM 45.6139 -111.3561 303° West 200 230 18,000  Level Salt Lake Center
Thu 09:19:02 AM 45.6422 -111.4189 303° West 198 228 18,000  Level Salt Lake Center
Thu 09:20:03 AM 45.6756 -111.4922 303° West 197 227 18,000 49 Level Salt Lake Center
Thu 09:21:04 AM 45.7033 -111.5544 303° West 196 226 18,100  Climbing Salt Lake Center
Thu 09:22:05 AM 45.7356 -111.6278 302° West 195 224 18,000 -49 Descending Salt Lake Center
Thu 09:23:06 AM 45.7619 -111.6922 300° West 196 226 18,000 49 Level Salt Lake Center
Thu 09:24:08 AM 45.7889 -111.7553 302° West 196 226 18,100 49 Climbing Salt Lake Center
Thu 09:25:09 AM 45.8192 -111.8303 300° West 195 224 18,100  Level Salt Lake Center
Thu 09:26:10 AM 45.8458 -111.8917 302° West 192 221 18,100  Level Salt Lake Center
Thu 09:27:11 AM 45.8750 -111.9536 304° West 194 223 18,100  Level Salt Lake Center
Thu 09:28:12 AM 45.9081 -112.0272 303° West 196 226 18,100 -49 Level Salt Lake Center
Thu 09:29:14 AM 45.9339 -112.0897 301° West 193 222 18,000  Descending Salt Lake Center
Thu 09:30:15 AM 45.9661 -112.1611 303° West 191 220 18,100 49 Climbing Salt Lake Center
Thu 09:31:16 AM 45.9922 -112.2242 301° West 191 220 18,100  Level Salt Lake Center
Thu 09:32:17 AM 46.0192 -112.2867 302° West 192 221 18,100  Level Salt Lake Center
Thu 09:33:19 AM 46.0503 -112.3611 301° West 195 224 18,100  Level Salt Lake Center
Thu 09:34:20 AM 46.0767 -112.4250 301° West 194 223 18,100  Level Salt Lake Center
Thu 09:35:21 AM 46.1078 -112.4992 301° West 194 223 18,100  Level Salt Lake Center
Thu 09:36:22 AM 46.1347 -112.5625 302° West 194 223 18,100  Level Salt Lake Center
Thu 09:37:24 AM 46.1608 -112.6261 301° West 193 222 18,100  Level Salt Lake Center
Thu 09:38:25 AM 46.1917 -112.7019 300° West 196 226 18,100  Level Salt Lake Center
Thu 09:39:26 AM 46.2181 -112.7647 301° West 193 222 18,100  Level Salt Lake Center
Thu 09:40:28 AM 46.2492 -112.8378 302° West 192 221 18,100  Level Salt Lake Center
Thu 09:41:29 AM 46.2761 -112.9044 300° West 197 227 18,100  Level Salt Lake Center
Thu 09:42:30 AM 46.3025 -112.9681 301° West 196 226 18,100  Level Salt Lake Center
Thu 09:43:32 AM 46.3325 -113.0428 300° West 193 222 18,100  Level Salt Lake Center
Thu 09:44:33 AM 46.3619 -113.1067 304° West 194 223 18,100  Level Salt Lake Center
Thu 09:45:35 AM 46.3928 -113.1806 301° West 197 227 18,100  Level Salt Lake Center
Thu 09:46:36 AM 46.4183 -113.2503 298° West 192 221 18,100  Level Salt Lake Center
Thu 09:47:38 AM 46.4472 -113.3203 301° West 192 221 18,100  Level Salt Lake Center
Thu 09:48:39 AM 46.4747 -113.3892 300° West 198 228 18,100  Level Salt Lake Center
Thu 09:49:40 AM 46.5019 -113.4556 301° West 195 224 18,100  Level Salt Lake Center
Thu 09:50:42 AM 46.5303 -113.5278 300° West 193 222 18,100  Level Salt Lake Center
Thu 09:51:43 AM 46.5561 -113.5944 299° West 190 219 18,100  Level Salt Lake Center
Thu 09:52:45 AM 46.5836 -113.6603 301° West 192 221 18,100  Level Salt Lake Center
Thu 09:53:47 AM 46.6122 -113.7322 300° West 190 219 18,100  Level Salt Lake Center
Thu 09:54:48 AM 46.6394 -113.7986 301° West 191 220 18,100  Level Salt Lake Center
Thu 09:55:50 AM 46.6658 -113.8642 300° West 190 219 18,100  Level Salt Lake Center
Thu 09:56:51 AM 46.6936 -113.9356 300° West 188 216 18,100  Level Salt Lake Center
Thu 09:57:53 AM 46.7200 -114.0025 300° West 191 220 18,100  Level Salt Lake Center
Thu 09:58:54 AM 46.7458 -114.0703 299° West 191 220 18,100  Level Salt Lake Center
Thu 09:59:56 AM 46.7747 -114.1417 301° West 191 220 18,100  Level Salt Lake Center
Thu 10:00:58 AM 46.8019 -114.2081 301° West 191 220 18,100  Level Salt Lake Center
Thu 10:01:59 AM 46.8292 -114.2744 301° West 191 220 18,100  Level Salt Lake Center
Thu 10:03:01 AM 46.8561 -114.3417 300° West 192 221 18,100  Level Salt Lake Center
Thu 10:04:02 AM 46.8836 -114.4153 299° West 191 220 18,100  Level Salt Lake Center
Thu 10:05:04 AM 46.9100 -114.4825 300° West 193 222 18,100  Level Salt Lake Center
Thu 10:06:06 AM 46.9358 -114.5514 299° West 193 222 18,100  Level Salt Lake Center
Thu 10:07:07 AM 46.9633 -114.6247 299° West 192 221 18,100  Level Salt Lake Center
Thu 10:08:09 AM 46.9900 -114.6933 300° West 193 222 18,100  Level Salt Lake Center
Thu 10:09:11 AM 47.0189 -114.7661 300° West 193 222 18,100  Level Salt Lake Center
Thu 10:10:12 AM 47.0447 -114.8331 300° West 190 219 18,100  Level Salt Lake Center
Thu 10:11:14 AM 47.0694 -114.8964 300° West 192 221 18,100  Level Salt Lake Center
Thu 10:12:16 AM 47.0961 -114.9625 301° West 190 219 18,100  Level Salt Lake Center
Thu 10:13:18 AM 47.1233 -115.0322 300° West 196 226 18,100  Level Salt Lake Center
Thu 10:14:19 AM 47.1503 -115.1008 300° West 196 226 18,100  Level Salt Lake Center
Thu 10:15:21 AM 47.1811 -115.1833 299° West 189 217 18,100  Level Salt Lake Center
Thu 10:16:23 AM 47.2072 -115.2547 298° West 197 227 18,100  Level Salt Lake Center
Thu 10:17:25 AM 47.2339 -115.3267 299° West 199 229 18,100  Level Salt Lake Center
Thu 10:18:26 AM 47.2592 -115.3969 298° West 197 227 18,100 -244 Level Salt Lake Center
Thu 10:19:28 AM 47.2853 -115.4672 299° West 196 226 17,600 -484 Descending Salt Lake Center
Thu 10:20:30 AM 47.3147 -115.5458 299° West 211 243 17,100 -484 Descending Salt Lake Center
Thu 10:21:32 AM 47.3436 -115.6211 300° West 213 245 16,600 -605 Descending Salt Lake Center
Thu 10:22:39 AM 47.3786 -115.7067 301° West 207 238 15,800 -750 Descending Seattle Center
Thu 10:23:40 AM 47.4067 -115.7850 298° West 210 242 15,000 -787 Descending Seattle Center
Thu 10:24:41 AM 47.4319 -115.8622 296° West 211 243 14,200 -738 Descending Seattle Center
Thu 10:25:42 AM 47.4592 -115.9372 298° West 210 242 13,500 -787 Descending Seattle Center
Thu 10:26:43 AM 47.4881 -116.0092 301° West 206 237 12,600 -934 Descending Seattle Center
Thu 10:27:44 AM 47.5161 -116.0836 299° West 207 238 11,600 -934 Descending Seattle Center
Thu 10:28:45 AM 47.5453 -116.1581 300° West 210 242 10,700 -934 Descending Seattle Center
Thu 10:29:46 AM 47.5739 -116.2439 296° West 199 229 9,700 -984 Descending Seattle Center

Login

Don't have an account? Register now (free) for customized features, flight alerts, and more!